sensor_id;sensor_type;location;lat;lon;timestamp;pressure;altitude;pressure_sealevel;temperature;humidity
41140;BME280;26881;48.784;9.192;2024-01-16T00:02:58;98037.75;;;-0.50;69.73
41140;BME280;26881;48.784;9.192;2024-01-16T00:08:20;98023.94;;;-0.44;68.98
41140;BME280;26881;48.784;9.192;2024-01-16T00:13:42;98037.88;;;-0.54;70.12
41140;BME280;26881;48.784;9.192;2024-01-16T00:19:04;98019.88;;;-0.54;69.39
41140;BME280;26881;48.784;9.192;2024-01-16T00:24:26;98026.03;;;-0.60;69.81
41140;BME280;26881;48.784;9.192;2024-01-16T00:29:48;98026.66;;;-0.50;69.28
41140;BME280;26881;48.784;9.192;2024-01-16T00:35:10;98025.22;;;-0.64;70.08
41140;BME280;26881;48.784;9.192;2024-01-16T00:40:32;98034.97;;;-0.78;70.63
41140;BME280;26881;48.784;9.192;2024-01-16T00:45:54;98022.84;;;-0.71;70.70
41140;BME280;26881;48.784;9.192;2024-01-16T00:51:16;98016.19;;;-0.80;71.81
41140;BME280;26881;48.784;9.192;2024-01-16T00:56:38;98024.78;;;-0.81;71.60
41140;BME280;26881;48.784;9.192;2024-01-16T01:02:00;98018.91;;;-0.86;71.69
41140;BME280;26881;48.784;9.192;2024-01-16T01:07:22;98002.63;;;-0.85;72.03
41140;BME280;26881;48.784;9.192;2024-01-16T01:12:44;98025.69;;;-0.83;71.95
41140;BME280;26881;48.784;9.192;2024-01-16T01:18:06;98020.47;;;-0.80;71.65
41140;BME280;26881;48.784;9.192;2024-01-16T01:23:28;98028.06;;;-0.74;71.53
41140;BME280;26881;48.784;9.192;2024-01-16T01:28:50;98041.81;;;-0.77;72.04
41140;BME280;26881;48.784;9.192;2024-01-16T01:34:12;98043.41;;;-0.73;71.69
41140;BME280;26881;48.784;9.192;2024-01-16T01:39:34;98046.66;;;-0.65;70.88
41140;BME280;26881;48.784;9.192;2024-01-16T01:44:56;98048.44;;;-0.68;71.24
41140;BME280;26881;48.784;9.192;2024-01-16T01:50:20;98058.63;;;-0.64;70.63
41140;BME280;26881;48.784;9.192;2024-01-16T01:55:42;98055.44;;;-0.75;71.43
41140;BME280;26881;48.784;9.192;2024-01-16T02:01:05;98066.69;;;-0.80;71.75
41140;BME280;26881;48.784;9.192;2024-01-16T02:06:27;98067.69;;;-0.86;71.80
41140;BME280;26881;48.784;9.192;2024-01-16T02:11:50;98063.50;;;-0.92;71.77
41140;BME280;26881;48.784;9.192;2024-01-16T02:17:11;98075.69;;;-1.00;72.35
41140;BME280;26881;48.784;9.192;2024-01-16T02:22:35;98084.41;;;-1.09;72.82
41140;BME280;26881;48.784;9.192;2024-01-16T02:27:59;98077.69;;;-1.14;73.75
41140;BME280;26881;48.784;9.192;2024-01-16T02:33:22;98071.69;;;-1.15;73.62
41140;BME280;26881;48.784;9.192;2024-01-16T02:38:44;98070.03;;;-1.17;73.58
41140;BME280;26881;48.784;9.192;2024-01-16T02:44:07;98075.13;;;-1.14;73.09
41140;BME280;26881;48.784;9.192;2024-01-16T02:49:29;98075.50;;;-1.34;74.46
41140;BME280;26881;48.784;9.192;2024-01-16T02:54:53;98075.44;;;-1.31;74.55
41140;BME280;26881;48.784;9.192;2024-01-16T03:00:16;98079.53;;;-1.21;74.10
41140;BME280;26881;48.784;9.192;2024-01-16T03:05:39;98090.13;;;-1.39;74.49
41140;BME280;26881;48.784;9.192;2024-01-16T03:11:01;98087.47;;;-1.35;74.48
41140;BME280;26881;48.784;9.192;2024-01-16T03:16:23;98087.41;;;-1.32;74.37
41140;BME280;26881;48.784;9.192;2024-01-16T03:21:44;98080.88;;;-1.46;74.24
41140;BME280;26881;48.784;9.192;2024-01-16T03:27:06;98083.22;;;-1.36;73.86
41140;BME280;26881;48.784;9.192;2024-01-16T03:32:28;98079.22;;;-1.49;74.16
41140;BME280;26881;48.784;9.192;2024-01-16T03:37:51;98084.44;;;-1.55;74.41
41140;BME280;26881;48.784;9.192;2024-01-16T03:43:13;98088.06;;;-1.67;75.09
41140;BME280;26881;48.784;9.192;2024-01-16T03:48:35;98093.28;;;-1.73;75.32
41140;BME280;26881;48.784;9.192;2024-01-16T03:53:57;98082.94;;;-1.67;74.64
41140;BME280;26881;48.784;9.192;2024-01-16T03:59:19;98078.06;;;-1.81;75.57
41140;BME280;26881;48.784;9.192;2024-01-16T04:04:41;98078.03;;;-1.79;74.76
41140;BME280;26881;48.784;9.192;2024-01-16T04:10:03;98074.59;;;-1.78;74.35
41140;BME280;26881;48.784;9.192;2024-01-16T04:15:27;98077.41;;;-1.94;75.12
41140;BME280;26881;48.784;9.192;2024-01-16T04:20:48;98083.31;;;-1.88;74.76
41140;BME280;26881;48.784;9.192;2024-01-16T04:26:11;98078.19;;;-1.88;75.00
41140;BME280;26881;48.784;9.192;2024-01-16T04:31:39;98065.38;;;-1.88;74.70
41140;BME280;26881;48.784;9.192;2024-01-16T04:37:02;98068.25;;;-2.07;75.45
41140;BME280;26881;48.784;9.192;2024-01-16T04:42:25;98069.94;;;-2.06;75.74
41140;BME280;26881;48.784;9.192;2024-01-16T04:47:47;98073.38;;;-2.07;75.83
41140;BME280;26881;48.784;9.192;2024-01-16T04:53:08;98070.69;;;-2.01;75.61
41140;BME280;26881;48.784;9.192;2024-01-16T04:58:30;98068.25;;;-2.07;75.54
41140;BME280;26881;48.784;9.192;2024-01-16T05:03:52;98073.34;;;-2.05;75.08
41140;BME280;26881;48.784;9.192;2024-01-16T05:09:14;98085.25;;;-2.03;74.30
41140;BME280;26881;48.784;9.192;2024-01-16T05:14:36;98080.75;;;-1.88;73.26
41140;BME280;26881;48.784;9.192;2024-01-16T05:19:58;98078.38;;;-2.01;73.90
41140;BME280;26881;48.784;9.192;2024-01-16T05:25:20;98060.53;;;-2.05;74.11
41140;BME280;26881;48.784;9.192;2024-01-16T05:30:43;98056.16;;;-1.99;73.19
41140;BME280;26881;48.784;9.192;2024-01-16T05:36:05;98054.56;;;-2.06;74.02
41140;BME280;26881;48.784;9.192;2024-01-16T05:41:27;98056.34;;;-2.11;74.36
41140;BME280;26881;48.784;9.192;2024-01-16T05:46:50;98049.66;;;-2.18;73.84
41140;BME280;26881;48.784;9.192;2024-01-16T05:52:12;98042.13;;;-2.27;74.96
41140;BME280;26881;48.784;9.192;2024-01-16T05:57:33;98048.06;;;-2.25;74.47
41140;BME280;26881;48.784;9.192;2024-01-16T06:02:55;98038.81;;;-2.34;74.74
41140;BME280;26881;48.784;9.192;2024-01-16T06:08:17;98044.88;;;-2.40;75.14
41140;BME280;26881;48.784;9.192;2024-01-16T06:13:40;98043.09;;;-2.35;74.98
41140;BME280;26881;48.784;9.192;2024-01-16T06:19:02;98044.69;;;-2.29;74.50
41140;BME280;26881;48.784;9.192;2024-01-16T06:24:24;98048.13;;;-2.28;75.37
41140;BME280;26881;48.784;9.192;2024-01-16T06:29:48;98034.44;;;-2.27;73.96
41140;BME280;26881;48.784;9.192;2024-01-16T06:35:12;98036.22;;;-2.33;73.22
41140;BME280;26881;48.784;9.192;2024-01-16T06:40:34;98036.94;;;-2.24;72.30
41140;BME280;26881;48.784;9.192;2024-01-16T06:45:56;98056.50;;;-2.20;70.99
41140;BME280;26881;48.784;9.192;2024-01-16T06:51:17;98053.09;;;-2.21;70.83
41140;BME280;26881;48.784;9.192;2024-01-16T06:56:40;98048.00;;;-2.22;70.46
41140;BME280;26881;48.784;9.192;2024-01-16T07:02:02;98055.66;;;-2.21;68.82
41140;BME280;26881;48.784;9.192;2024-01-16T07:07:25;98050.50;;;-2.19;68.56
41140;BME280;26881;48.784;9.192;2024-01-16T07:12:46;98053.06;;;-2.19;68.02
41140;BME280;26881;48.784;9.192;2024-01-16T07:18:08;98048.06;;;-2.25;67.75
41140;BME280;26881;48.784;9.192;2024-01-16T07:23:31;98052.13;;;-2.14;66.94
41140;BME280;26881;48.784;9.192;2024-01-16T07:28:53;98045.38;;;-2.19;67.75
41140;BME280;26881;48.784;9.192;2024-01-16T07:34:14;98050.41;;;-2.12;66.83
41140;BME280;26881;48.784;9.192;2024-01-16T07:39:41;98052.97;;;-2.12;66.88
41140;BME280;26881;48.784;9.192;2024-01-16T07:45:04;98049.50;;;-2.10;66.28
41140;BME280;26881;48.784;9.192;2024-01-16T07:50:26;98045.13;;;-2.02;66.07
41140;BME280;26881;48.784;9.192;2024-01-16T07:55:48;98036.06;;;-1.74;64.47
41140;BME280;26881;48.784;9.192;2024-01-16T08:01:10;98039.47;;;-1.73;64.50
41140;BME280;26881;48.784;9.192;2024-01-16T08:06:32;98041.94;;;-1.68;64.36
41140;BME280;26881;48.784;9.192;2024-01-16T08:11:54;98034.69;;;-1.46;62.62
41140;BME280;26881;48.784;9.192;2024-01-16T08:17:16;98034.69;;;-1.46;64.04
41140;BME280;26881;48.784;9.192;2024-01-16T08:22:38;98040.41;;;-1.34;61.99
41140;BME280;26881;48.784;9.192;2024-01-16T08:28:00;98034.91;;;-1.14;61.84
41140;BME280;26881;48.784;9.192;2024-01-16T08:33:22;98040.59;;;-1.01;62.29
41140;BME280;26881;48.784;9.192;2024-01-16T08:38:57;98044.63;;;-0.89;60.92
41140;BME280;26881;48.784;9.192;2024-01-16T08:44:20;98047.00;;;-0.80;60.22
41140;BME280;26881;48.784;9.192;2024-01-16T08:49:42;98058.19;;;-0.82;60.38
41140;BME280;26881;48.784;9.192;2024-01-16T08:55:05;98065.03;;;-0.81;60.09
41140;BME280;26881;48.784;9.192;2024-01-16T09:00:27;98076.84;;;-0.74;59.72
41140;BME280;26881;48.784;9.192;2024-01-16T09:05:49;98073.09;;;-0.61;58.65
41140;BME280;26881;48.784;9.192;2024-01-16T09:11:11;98069.72;;;-0.61;58.52
41140;BME280;26881;48.784;9.192;2024-01-16T09:16:33;98071.94;;;-0.46;58.36
41140;BME280;26881;48.784;9.192;2024-01-16T09:21:57;98054.09;;;-0.54;58.29
41140;BME280;26881;48.784;9.192;2024-01-16T09:27:19;98060.69;;;-0.42;59.25
41140;BME280;26881;48.784;9.192;2024-01-16T09:32:41;98065.47;;;-0.25;60.27
41140;BME280;26881;48.784;9.192;2024-01-16T09:38:04;98076.78;;;0.02;59.65
41140;BME280;26881;48.784;9.192;2024-01-16T09:43:29;98062.81;;;0.12;59.94
41140;BME280;26881;48.784;9.192;2024-01-16T09:48:56;98066.69;;;0.61;58.86
41140;BME280;26881;48.784;9.192;2024-01-16T09:54:18;98058.38;;;1.13;56.47
41140;BME280;26881;48.784;9.192;2024-01-16T09:59:41;98054.59;;;0.95;53.69
41140;BME280;26881;48.784;9.192;2024-01-16T10:05:03;98044.69;;;1.11;53.74
41140;BME280;26881;48.784;9.192;2024-01-16T10:10:25;98052.16;;;1.48;52.83
41140;BME280;26881;48.784;9.192;2024-01-16T10:16:07;98038.88;;;1.34;53.28
41140;BME280;26881;48.784;9.192;2024-01-16T10:21:29;98031.72;;;1.97;51.02
41140;BME280;26881;48.784;9.192;2024-01-16T10:27:00;98005.41;;;3.08;49.57
41140;BME280;26881;48.784;9.192;2024-01-16T10:32:27;97996.66;;;4.58;44.84
41140;BME280;26881;48.784;9.192;2024-01-16T10:37:53;97991.69;;;4.73;45.87
41140;BME280;26881;48.784;9.192;2024-01-16T10:43:17;97991.34;;;4.01;46.71
41140;BME280;26881;48.784;9.192;2024-01-16T10:48:41;97997.50;;;4.59;46.96
41140;BME280;26881;48.784;9.192;2024-01-16T10:54:04;97986.34;;;6.39;42.84
41140;BME280;26881;48.784;9.192;2024-01-16T11:05:39;97968.03;;;7.38;39.65
41140;BME280;26881;48.784;9.192;2024-01-16T11:11:02;97960.75;;;7.75;39.31
41140;BME280;26881;48.784;9.192;2024-01-16T11:16:25;97961.38;;;6.53;40.66
41140;BME280;26881;48.784;9.192;2024-01-16T11:21:48;97945.94;;;8.06;38.83
41140;BME280;26881;48.784;9.192;2024-01-16T11:27:22;97936.69;;;8.59;37.33
41140;BME280;26881;48.784;9.192;2024-01-16T11:32:44;97927.69;;;9.06;35.61
41140;BME280;26881;48.784;9.192;2024-01-16T11:38:09;97919.38;;;9.41;35.36
41140;BME280;26881;48.784;9.192;2024-01-16T11:49:02;97897.44;;;9.31;35.88
41140;BME280;26881;48.784;9.192;2024-01-16T11:54:26;97902.13;;;9.26;34.64
41140;BME280;26881;48.784;9.192;2024-01-16T12:00:04;97879.00;;;8.51;36.13
41140;BME280;26881;48.784;9.192;2024-01-16T12:05:34;97870.06;;;7.98;37.82
41140;BME280;26881;48.784;9.192;2024-01-16T12:10:56;97857.44;;;9.83;35.78
41140;BME280;26881;48.784;9.192;2024-01-16T12:16:19;97865.69;;;8.56;35.36
41140;BME280;26881;48.784;9.192;2024-01-16T12:21:43;97854.06;;;8.33;33.33
41140;BME280;26881;48.784;9.192;2024-01-16T12:27:05;97856.09;;;7.99;34.40
41140;BME280;26881;48.784;9.192;2024-01-16T12:32:27;97830.69;;;8.87;34.12
41140;BME280;26881;48.784;9.192;2024-01-16T12:38:03;97835.16;;;6.49;35.10
41140;BME280;26881;48.784;9.192;2024-01-16T12:43:27;97832.66;;;7.40;34.69
41140;BME280;26881;48.784;9.192;2024-01-16T12:48:49;97836.59;;;7.17;33.98
41140;BME280;26881;48.784;9.192;2024-01-16T12:54:24;97829.47;;;8.65;32.50
41140;BME280;26881;48.784;9.192;2024-01-16T12:59:47;97824.19;;;8.10;32.63
41140;BME280;26881;48.784;9.192;2024-01-16T13:05:09;97821.59;;;8.24;32.52
41140;BME280;26881;48.784;9.192;2024-01-16T13:10:31;97817.88;;;8.14;32.98
41140;BME280;26881;48.784;9.192;2024-01-16T13:15:53;97807.88;;;8.91;31.30
41140;BME280;26881;48.784;9.192;2024-01-16T13:21:15;97796.22;;;9.49;31.72
41140;BME280;26881;48.784;9.192;2024-01-16T13:26:37;97789.88;;;10.54;30.52
41140;BME280;26881;48.784;9.192;2024-01-16T13:31:59;97774.88;;;10.19;30.56
41140;BME280;26881;48.784;9.192;2024-01-16T13:37:22;97778.34;;;9.30;31.62
41140;BME280;26881;48.784;9.192;2024-01-16T13:42:45;97755.41;;;10.60;28.75
41140;BME280;26881;48.784;9.192;2024-01-16T13:48:09;97771.56;;;8.88;30.66
41140;BME280;26881;48.784;9.192;2024-01-16T13:53:31;97779.00;;;8.94;30.92
41140;BME280;26881;48.784;9.192;2024-01-16T13:58:53;97777.78;;;7.73;33.34
41140;BME280;26881;48.784;9.192;2024-01-16T14:04:15;97772.38;;;6.09;35.71
41140;BME280;26881;48.784;9.192;2024-01-16T14:09:37;97772.84;;;5.16;37.25
41140;BME280;26881;48.784;9.192;2024-01-16T14:15:01;97763.19;;;4.49;39.26
41140;BME280;26881;48.784;9.192;2024-01-16T14:20:25;97763.09;;;3.95;40.64
41140;BME280;26881;48.784;9.192;2024-01-16T14:25:49;97746.81;;;3.53;41.42
41140;BME280;26881;48.784;9.192;2024-01-16T14:31:11;97751.19;;;3.32;43.17
41140;BME280;26881;48.784;9.192;2024-01-16T14:36:33;97738.53;;;3.06;43.05
41140;BME280;26881;48.784;9.192;2024-01-16T14:41:55;97738.22;;;3.13;43.17
41140;BME280;26881;48.784;9.192;2024-01-16T14:47:16;97735.69;;;3.12;43.39
41140;BME280;26881;48.784;9.192;2024-01-16T14:52:39;97733.19;;;3.10;43.52
41140;BME280;26881;48.784;9.192;2024-01-16T14:58:02;97733.69;;;2.78;44.98
41140;BME280;26881;48.784;9.192;2024-01-16T15:03:24;97712.34;;;2.52;45.59
41140;BME280;26881;48.784;9.192;2024-01-16T15:08:46;97715.94;;;2.26;46.51
41140;BME280;26881;48.784;9.192;2024-01-16T15:14:13;97722.91;;;1.80;47.41
41140;BME280;26881;48.784;9.192;2024-01-16T15:19:36;97719.59;;;1.76;48.72
41140;BME280;26881;48.784;9.192;2024-01-16T15:24:58;97718.50;;;1.58;49.32
41140;BME280;26881;48.784;9.192;2024-01-16T15:30:20;97725.56;;;1.53;51.13
41140;BME280;26881;48.784;9.192;2024-01-16T15:35:43;97728.97;;;1.30;50.90
41140;BME280;26881;48.784;9.192;2024-01-16T15:41:05;97726.38;;;1.07;51.70
41140;BME280;26881;48.784;9.192;2024-01-16T15:46:27;97725.84;;;0.97;52.09
41140;BME280;26881;48.784;9.192;2024-01-16T15:51:49;97729.94;;;0.77;53.51
41140;BME280;26881;48.784;9.192;2024-01-16T15:57:11;97730.44;;;0.62;54.19
41140;BME280;26881;48.784;9.192;2024-01-16T16:02:33;97728.44;;;0.44;54.74
41140;BME280;26881;48.784;9.192;2024-01-16T16:07:55;97747.72;;;0.30;54.30
41140;BME280;26881;48.784;9.192;2024-01-16T16:13:18;97759.28;;;0.17;55.09
41140;BME280;26881;48.784;9.192;2024-01-16T16:18:40;97772.03;;;-0.08;56.94
41140;BME280;26881;48.784;9.192;2024-01-16T16:24:04;97786.63;;;-0.40;58.69
41140;BME280;26881;48.784;9.192;2024-01-16T16:29:26;97788.69;;;-0.53;58.81
41140;BME280;26881;48.784;9.192;2024-01-16T16:34:48;97789.16;;;-0.70;59.54
41140;BME280;26881;48.784;9.192;2024-01-16T16:40:10;97795.50;;;-0.83;60.02
41140;BME280;26881;48.784;9.192;2024-01-16T16:45:33;97806.31;;;-1.04;61.31
41140;BME280;26881;48.784;9.192;2024-01-16T16:50:55;97798.72;;;-1.09;61.49
41140;BME280;26881;48.784;9.192;2024-01-16T16:56:19;97807.38;;;-1.13;61.59
41140;BME280;26881;48.784;9.192;2024-01-16T17:01:41;97810.78;;;-1.13;61.92
41140;BME280;26881;48.784;9.192;2024-01-16T17:07:03;97805.06;;;-1.24;62.21
41140;BME280;26881;48.784;9.192;2024-01-16T17:12:25;97797.03;;;-1.46;63.58
41140;BME280;26881;48.784;9.192;2024-01-16T17:17:47;97796.41;;;-1.56;63.77
41140;BME280;26881;48.784;9.192;2024-01-16T17:23:09;97792.94;;;-1.55;63.73
41140;BME280;26881;48.784;9.192;2024-01-16T17:28:31;97781.84;;;-1.54;63.48
41140;BME280;26881;48.784;9.192;2024-01-16T17:33:53;97775.53;;;-1.40;62.18
41140;BME280;26881;48.784;9.192;2024-01-16T17:39:16;97773.84;;;-1.41;62.35
41140;BME280;26881;48.784;9.192;2024-01-16T17:44:48;97766.88;;;-1.36;61.78
41140;BME280;26881;48.784;9.192;2024-01-16T17:50:10;97761.84;;;-1.39;62.21
41140;BME280;26881;48.784;9.192;2024-01-16T17:55:33;97763.88;;;-1.54;63.36
41140;BME280;26881;48.784;9.192;2024-01-16T18:00:55;97755.75;;;-1.73;64.51
41140;BME280;26881;48.784;9.192;2024-01-16T18:06:17;97764.00;;;-1.96;65.35
41140;BME280;26881;48.784;9.192;2024-01-16T18:11:55;97760.47;;;-1.92;65.23
41140;BME280;26881;48.784;9.192;2024-01-16T18:17:17;97758.91;;;-1.99;65.75
41140;BME280;26881;48.784;9.192;2024-01-16T18:22:40;97759.00;;;-2.03;66.36
41140;BME280;26881;48.784;9.192;2024-01-16T18:28:02;97745.38;;;-2.05;65.46
41140;BME280;26881;48.784;9.192;2024-01-16T18:33:25;97746.38;;;-2.11;66.23
41140;BME280;26881;48.784;9.192;2024-01-16T18:38:47;97741.25;;;-2.11;66.85
41140;BME280;26881;48.784;9.192;2024-01-16T18:44:11;97735.78;;;-2.36;71.50
41140;BME280;26881;48.784;9.192;2024-01-16T18:49:33;97731.78;;;-2.49;69.66
41140;BME280;26881;48.784;9.192;2024-01-16T18:54:56;97716.50;;;-2.51;70.57
41140;BME280;26881;48.784;9.192;2024-01-16T19:00:18;97707.53;;;-2.72;70.37
41140;BME280;26881;48.784;9.192;2024-01-16T19:05:44;97694.84;;;-2.78;70.53
41140;BME280;26881;48.784;9.192;2024-01-16T19:11:06;97683.03;;;-2.84;70.70
41140;BME280;26881;48.784;9.192;2024-01-16T19:16:27;97676.34;;;-2.91;69.67
41140;BME280;26881;48.784;9.192;2024-01-16T19:21:50;97675.53;;;-2.93;70.87
41140;BME280;26881;48.784;9.192;2024-01-16T19:27:13;97665.38;;;-2.98;71.47
41140;BME280;26881;48.784;9.192;2024-01-16T19:32:35;97653.41;;;-2.95;72.39
41140;BME280;26881;48.784;9.192;2024-01-16T19:37:57;97643.81;;;-2.86;72.66
41140;BME280;26881;48.784;9.192;2024-01-16T19:43:19;97633.22;;;-3.09;73.57
41140;BME280;26881;48.784;9.192;2024-01-16T19:48:41;97638.25;;;-3.06;73.85
41140;BME280;26881;48.784;9.192;2024-01-16T19:54:03;97642.47;;;-3.04;73.56
41140;BME280;26881;48.784;9.192;2024-01-16T19:59:28;97634.72;;;-2.99;73.70
41140;BME280;26881;48.784;9.192;2024-01-16T20:04:52;97628.06;;;-3.08;73.85
41140;BME280;26881;48.784;9.192;2024-01-16T20:10:16;97620.53;;;-3.15;74.77
41140;BME280;26881;48.784;9.192;2024-01-16T20:15:39;97612.13;;;-3.22;75.03
41140;BME280;26881;48.784;9.192;2024-01-16T20:21:01;97607.25;;;-3.33;75.42
41140;BME280;26881;48.784;9.192;2024-01-16T20:26:23;97610.00;;;-3.44;75.59
41140;BME280;26881;48.784;9.192;2024-01-16T20:31:47;97607.38;;;-3.41;76.35
41140;BME280;26881;48.784;9.192;2024-01-16T20:37:09;97600.59;;;-3.42;76.81
41140;BME280;26881;48.784;9.192;2024-01-16T20:42:34;97584.47;;;-3.45;77.26
41140;BME280;26881;48.784;9.192;2024-01-16T20:47:58;97588.72;;;-3.44;78.24
41140;BME280;26881;48.784;9.192;2024-01-16T20:53:20;97588.88;;;-3.53;79.29
41140;BME280;26881;48.784;9.192;2024-01-16T20:58:43;97582.06;;;-3.53;78.68
41140;BME280;26881;48.784;9.192;2024-01-16T21:04:05;97576.56;;;-3.33;77.91
41140;BME280;26881;48.784;9.192;2024-01-16T21:09:28;97569.25;;;-3.51;77.88
41140;BME280;26881;48.784;9.192;2024-01-16T21:14:50;97562.28;;;-3.43;78.20
41140;BME280;26881;48.784;9.192;2024-01-16T21:20:12;97548.66;;;-3.44;78.16
41140;BME280;26881;48.784;9.192;2024-01-16T21:25:34;97543.63;;;-3.48;79.23
41140;BME280;26881;48.784;9.192;2024-01-16T21:30:56;97536.06;;;-3.54;79.92
41140;BME280;26881;48.784;9.192;2024-01-16T21:36:23;97542.13;;;-3.58;79.97
41140;BME280;26881;48.784;9.192;2024-01-16T21:41:45;97535.41;;;-3.63;80.30
41140;BME280;26881;48.784;9.192;2024-01-16T21:47:08;97528.66;;;-3.67;79.56
41140;BME280;26881;48.784;9.192;2024-01-16T21:52:30;97516.75;;;-3.68;80.54
41140;BME280;26881;48.784;9.192;2024-01-16T21:57:52;97512.69;;;-3.78;80.22
41140;BME280;26881;48.784;9.192;2024-01-16T22:03:14;97504.19;;;-3.78;80.82
41140;BME280;26881;48.784;9.192;2024-01-16T22:08:36;97493.97;;;-3.78;81.41
41140;BME280;26881;48.784;9.192;2024-01-16T22:13:57;97490.41;;;-3.71;81.50
41140;BME280;26881;48.784;9.192;2024-01-16T22:19:20;97474.25;;;-3.73;82.17
41140;BME280;26881;48.784;9.192;2024-01-16T22:24:42;97465.88;;;-3.80;83.75
41140;BME280;26881;48.784;9.192;2024-01-16T22:30:04;97465.78;;;-3.74;83.63
41140;BME280;26881;48.784;9.192;2024-01-16T22:35:30;97457.81;;;-3.60;83.04
41140;BME280;26881;48.784;9.192;2024-01-16T22:40:52;97447.78;;;-3.68;83.49
41140;BME280;26881;48.784;9.192;2024-01-16T22:46:14;97431.47;;;-3.64;83.72
41140;BME280;26881;48.784;9.192;2024-01-16T22:51:36;97433.25;;;-3.66;83.33
41140;BME280;26881;48.784;9.192;2024-01-16T22:56:58;97420.38;;;-3.61;83.21
41140;BME280;26881;48.784;9.192;2024-01-16T23:02:20;97410.91;;;-3.57;82.46
41140;BME280;26881;48.784;9.192;2024-01-16T23:07:42;97414.41;;;-3.62;82.74
41140;BME280;26881;48.784;9.192;2024-01-16T23:13:07;97414.31;;;-3.57;83.34
41140;BME280;26881;48.784;9.192;2024-01-16T23:18:29;97401.50;;;-3.54;83.31
41140;BME280;26881;48.784;9.192;2024-01-16T23:23:51;97392.03;;;-3.50;83.46
41140;BME280;26881;48.784;9.192;2024-01-16T23:29:13;97396.22;;;-3.48;82.90
41140;BME280;26881;48.784;9.192;2024-01-16T23:34:35;97393.66;;;-3.48;83.14
41140;BME280;26881;48.784;9.192;2024-01-16T23:39:59;97369.13;;;-3.55;82.80
41140;BME280;26881;48.784;9.192;2024-01-16T23:45:21;97358.78;;;-3.49;82.97
41140;BME280;26881;48.784;9.192;2024-01-16T23:50:54;97341.75;;;-3.50;82.53
41140;BME280;26881;48.784;9.192;2024-01-16T23:56:15;97325.41;;;-3.43;82.39
